Wyoming, MI (49509)

1:44 PM EST on December 08, 2016 (GMT -0500)
| | Change Station
Active Advisory: Winter Weather Advisory

Elev -9999 ft 0.00 °N, 0.00 °E | Updated 9 minutes ago

Snow
Snow
°F
Feels Like °F
N
Wind Variable Wind from North
Gusts mph

Today
High -- | Low -- °F
--% Chance of Precip.
Yesterday
High -- | Low -- °F
Precip. -- in
Pressure 30.15 in
Visibility 2.5 miles
Clouds Few 1400 ft
Mostly Cloudy 2300 ft
Overcast 3500 ft
Dew Point Not available.
Humidity Not available.
Rainfall --
Snow Depth Not available.
8:01 AM 5:08 PM
Waxing Gibbous, 65% visible
METAR KGRR 081753Z 28012KT 2 1/2SM -SN FEW014 BKN023 OVC035 M04/M07 A3012 RMK AO2 SLP210 4/001 P0000 60000 T10391072 11028 21044 51014
Pressure 30.15 in
Visibility 2.5 miles
Clouds Few 1400 ft
Mostly Cloudy 2300 ft
Overcast 3500 ft
Dew Point Not available.
Humidity Not available.
Rainfall --
Snow Depth Not available.
8:01 AM 5:08 PM
Waxing Gibbous, 65% visible
METAR KGRR 081753Z 28012KT 2 1/2SM -SN FEW014 BKN023 OVC035 M04/M07 A3012 RMK AO2 SLP210 4/001 P0000 60000 T10391072 11028 21044 51014

10-Day Weather Forecast

Almanac

Astronomy

Dec. 08, 2016 Rise Set
Actual Time
Civil Twilight
Nautical Twilight
Astronomical Twilight
Moon
Length of Visible Light
Length of Day
Tomorrow will be .
, % of the Moon is Illuminated

Today's Extremes

State Highs State Lows

Community

WunderPhotos

Upload Photos

1,956,277 photos uploaded!

WunderBlog® & News

Nearby

Air Quality

  Air Quality AQ Index Pollutant
Not available.

Snow Depth

Station Depth Elevation

Earthquake Activity

City Distance Mag. Time & Date
Minimum magnitude displayed is 2.5.

Coastal Water Temperatures

Place Temperature

Stations

Nearby Weather Stations

Station Location Temp. Windchill Dew Point Humidity Wind Precip. Elev Updated Type
                   

Watches & Warnings

Winter Weather Advisory
Issued: 11:43 AM EST Dec. 8, 2016 – National Weather Service

... Winter Weather Advisory remains in effect until 4 PM EST
Friday...

Hazardous weather...

* snow showers will continue tonight and Friday.

* Snowfall totals of 3 to 6 inches are expected by late Friday.

* Gusty west to northwest winds will result in blowing and
   drifting snow through this evening.

* Wind chill readings 10 to 15 above zero.

* Near whiteout conditions are possible as visibilities will be
   changing rapidly.

Impacts...

* roads will become snow covered and slippery.

* Longer commute times.

Precautionary/preparedness actions...

* the Michigan Department of Transportation reminds motorists
   to adjust speeds based on the conditions... and to take it
   slow in ice and snow.

* Weather preparedness information is available online at:
   www.Ready.Gov/winter.